createdAt,value
2023-02-12T00:01:38.151Z,31.95
2023-02-12T00:04:44.149Z,31.02
2023-02-12T00:07:49.726Z,33.88
2023-02-12T00:10:55.602Z,32.00
2023-02-12T00:14:03.428Z,33.55
2023-02-12T00:17:09.122Z,30.77
2023-02-12T00:20:14.773Z,32.53
2023-02-12T00:23:20.408Z,30.33
2023-02-12T00:26:26.020Z,32.80
2023-02-12T00:29:31.566Z,31.83
2023-02-12T00:32:37.574Z,32.22
2023-02-12T00:35:43.335Z,33.13
2023-02-12T00:38:52.169Z,31.30
2023-02-12T00:41:57.565Z,31.55
2023-02-12T00:45:03.048Z,31.75
2023-02-12T00:48:10.278Z,31.17
2023-02-12T00:51:16.112Z,34.75
2023-02-12T00:54:22.136Z,33.95
2023-02-12T00:57:27.822Z,34.90
2023-02-12T01:00:35.255Z,33.47
2023-02-12T01:03:41.676Z,33.05
2023-02-12T01:06:47.357Z,36.00
2023-02-12T01:09:52.988Z,31.80
2023-02-12T01:12:58.502Z,35.55
2023-02-12T01:16:20.433Z,33.45
2023-02-12T01:19:26.002Z,33.95
2023-02-12T01:22:31.779Z,32.60
2023-02-12T01:25:38.967Z,33.78
2023-02-12T01:28:48.727Z,31.77
2023-02-12T01:31:54.768Z,33.03
2023-02-12T01:35:00.570Z,31.67
2023-02-12T01:38:05.949Z,33.00
2023-02-12T01:41:15.537Z,34.75
2023-02-12T01:44:29.246Z,34.47
2023-02-12T01:47:35.312Z,37.75
2023-02-12T01:50:44.507Z,35.22
2023-02-12T01:53:55.691Z,38.73
2023-02-12T01:57:03.385Z,36.83
2023-02-12T02:00:21.047Z,37.60
2023-02-12T02:03:27.064Z,36.60
2023-02-12T02:06:36.684Z,36.70
2023-02-12T02:09:42.705Z,38.03
2023-02-12T02:13:07.556Z,39.05
2023-02-12T02:16:23.767Z,34.88
2023-02-12T02:20:01.935Z,36.60
2023-02-12T02:23:42.225Z,34.80
2023-02-12T02:27:11.978Z,33.17
2023-02-12T02:30:26.239Z,34.30
2023-02-12T02:34:02.583Z,32.17
2023-02-12T02:37:40.237Z,33.33
2023-02-12T02:41:09.813Z,32.22
2023-02-12T02:44:23.911Z,32.60
2023-02-12T02:47:54.061Z,32.03
2023-02-12T02:51:07.877Z,31.77
2023-02-12T02:54:31.238Z,33.83
2023-02-12T02:57:47.600Z,31.27
2023-02-12T03:01:02.263Z,31.85
2023-02-12T03:04:18.939Z,31.35
2023-02-12T03:07:35.152Z,35.05
2023-02-12T03:10:49.284Z,31.23
2023-02-12T03:14:06.931Z,33.42
2023-02-12T03:17:35.268Z,34.92
2023-02-12T03:20:46.358Z,33.28
2023-02-12T03:24:05.391Z,32.95
2023-02-12T03:27:27.235Z,34.95
2023-02-12T03:30:58.623Z,35.20
2023-02-12T03:34:24.603Z,34.60
2023-02-12T03:37:30.049Z,37.28
2023-02-12T03:40:40.968Z,35.58
2023-02-12T03:44:27.471Z,35.77
2023-02-12T03:47:45.654Z,35.10
2023-02-12T03:50:59.201Z,34.80
2023-02-12T03:54:07.975Z,34.05
2023-02-12T03:57:21.953Z,36.03
2023-02-12T04:00:28.510Z,37.03
2023-02-12T04:03:34.240Z,37.22
2023-02-12T04:06:40.547Z,36.17
2023-02-12T04:09:46.279Z,35.30
2023-02-12T04:13:21.654Z,35.95
2023-02-12T04:16:37.984Z,35.35
2023-02-12T04:20:08.994Z,34.67
2023-02-12T04:23:18.354Z,35.80
2023-02-12T04:26:42.343Z,32.67
2023-02-12T04:30:06.167Z,33.47
2023-02-12T04:33:19.258Z,35.85
2023-02-12T04:36:33.234Z,33.83
2023-02-12T04:39:41.461Z,33.85
2023-02-12T04:42:49.704Z,36.13
2023-02-12T04:45:55.623Z,38.38
2023-02-12T04:49:01.466Z,36.30
2023-02-12T04:52:07.714Z,35.67
2023-02-12T04:55:13.076Z,39.05
2023-02-12T04:58:19.257Z,37.95
2023-02-12T05:01:25.180Z,37.47
2023-02-12T05:04:30.740Z,36.83
2023-02-12T05:07:36.283Z,34.70
2023-02-12T05:10:41.863Z,37.70
2023-02-12T05:13:53.906Z,35.38
2023-02-12T05:20:05.617Z,35.30
2023-02-12T05:23:11.351Z,35.38
2023-02-12T05:26:20.803Z,36.38
2023-02-12T05:29:26.391Z,35.47
2023-02-12T05:32:32.028Z,37.10
2023-02-12T05:35:37.852Z,36.67
2023-02-12T05:38:43.861Z,41.53
2023-02-12T05:41:49.270Z,43.53
2023-02-12T05:44:54.816Z,40.60
2023-02-12T05:48:00.659Z,40.50
2023-02-12T05:51:27.658Z,40.20
2023-02-12T05:54:33.091Z,37.72
2023-02-12T05:57:38.362Z,39.78
2023-02-12T06:00:43.802Z,37.47
2023-02-12T06:03:49.087Z,38.13
2023-02-12T06:06:56.007Z,37.50
2023-02-12T06:10:01.399Z,38.60
2023-02-12T06:13:06.889Z,37.58
2023-02-12T06:16:23.441Z,39.50
2023-02-12T06:19:29.054Z,38.45
2023-02-12T06:22:34.723Z,37.72
2023-02-12T06:25:40.245Z,37.88
2023-02-12T06:28:46.010Z,37.55
2023-02-12T06:31:51.871Z,39.60
2023-02-12T06:34:57.534Z,38.00
2023-02-12T06:38:03.226Z,39.60
2023-02-12T06:41:09.059Z,40.30
2023-02-12T06:44:14.524Z,37.55
2023-02-12T06:47:19.899Z,38.78
2023-02-12T06:50:25.564Z,40.95
2023-02-12T06:53:30.690Z,43.28
2023-02-12T06:56:37.123Z,42.70
2023-02-12T06:59:42.560Z,43.75
2023-02-12T07:02:54.460Z,40.15
2023-02-12T07:06:00.297Z,41.67
2023-02-12T07:09:06.528Z,38.08
2023-02-12T07:12:12.179Z,41.58
2023-02-12T07:15:17.659Z,39.70
2023-02-12T07:18:23.087Z,41.20
2023-02-12T07:21:28.355Z,41.20
2023-02-12T07:24:33.419Z,40.83
2023-02-12T07:27:38.734Z,41.58
2023-02-12T07:30:43.945Z,41.10
2023-02-12T07:33:53.856Z,38.95
2023-02-12T07:36:59.337Z,41.17
2023-02-12T07:40:05.231Z,43.65
2023-02-12T07:43:10.869Z,42.25
2023-02-12T07:46:23.009Z,42.53
2023-02-12T07:49:28.741Z,42.45
2023-02-12T07:52:34.470Z,45.08
2023-02-12T07:55:40.080Z,44.10
2023-02-12T07:58:48.269Z,47.45
2023-02-12T08:01:53.978Z,49.20
2023-02-12T08:04:59.709Z,46.55
2023-02-12T08:08:04.876Z,45.67
2023-02-12T08:11:11.743Z,46.15
2023-02-12T08:14:20.070Z,52.53
2023-02-12T08:17:25.679Z,46.22
2023-02-12T08:20:30.794Z,48.67
2023-02-12T08:23:35.990Z,46.17
2023-02-12T08:26:41.456Z,45.47
2023-02-12T08:29:47.589Z,49.38
2023-02-12T08:32:53.002Z,49.60
2023-02-12T08:36:10.292Z,49.80
2023-02-12T08:39:16.809Z,46.78
2023-02-12T08:42:23.310Z,46.35
2023-02-12T08:45:28.717Z,52.60
2023-02-12T08:48:34.692Z,48.90
2023-02-12T08:51:43.896Z,48.63
2023-02-12T08:54:49.437Z,49.95
2023-02-12T08:57:58.157Z,50.85
2023-02-12T09:01:05.735Z,51.22
2023-02-12T09:04:18.397Z,50.05
2023-02-12T09:07:23.834Z,50.70
2023-02-12T09:10:29.275Z,48.47
2023-02-12T09:13:34.953Z,47.78
2023-02-12T09:16:40.763Z,47.85
2023-02-12T09:19:46.252Z,48.47
2023-02-12T09:22:51.884Z,45.92
2023-02-12T09:25:57.864Z,45.83
2023-02-12T09:29:04.416Z,44.03
2023-02-12T09:32:10.853Z,44.75
2023-02-12T09:35:16.316Z,43.35
2023-02-12T09:38:21.997Z,42.63
2023-02-12T09:41:44.335Z,44.10
2023-02-12T09:45:08.132Z,45.00
2023-02-12T09:48:35.515Z,46.40
2023-02-12T09:51:44.476Z,41.15
2023-02-12T09:54:50.784Z,44.53
2023-02-12T09:57:56.120Z,42.22
2023-02-12T10:01:05.758Z,44.85
2023-02-12T10:04:12.133Z,41.60
2023-02-12T10:07:17.536Z,39.45
2023-02-12T10:10:40.619Z,38.47
2023-02-12T10:14:20.027Z,37.80
2023-02-12T10:17:42.508Z,36.35
2023-02-12T10:21:13.261Z,37.83
2023-02-12T10:24:43.500Z,39.47
2023-02-12T10:27:56.425Z,38.20
2023-02-12T10:31:13.375Z,40.33
2023-02-12T10:34:22.999Z,38.47
2023-02-12T10:37:55.622Z,39.13
2023-02-12T10:41:02.971Z,36.72
2023-02-12T10:44:11.037Z,34.47
2023-02-12T10:47:22.046Z,36.53
2023-02-12T10:51:12.697Z,36.00
2023-02-12T10:54:42.910Z,35.92
2023-02-12T10:57:48.237Z,35.00
2023-02-12T11:01:00.136Z,34.75
2023-02-12T11:04:23.617Z,39.78
2023-02-12T11:07:29.619Z,36.53
2023-02-12T11:10:42.332Z,34.65
2023-02-12T11:14:04.793Z,35.25
2023-02-12T11:17:52.263Z,31.20
2023-02-12T11:21:01.461Z,31.67
2023-02-12T11:24:35.832Z,32.53
2023-02-12T11:27:42.205Z,31.85
2023-02-12T11:30:58.705Z,33.88
2023-02-12T11:34:10.811Z,31.63
2023-02-12T11:37:20.188Z,29.83
2023-02-12T11:40:36.318Z,30.83
2023-02-12T11:43:41.848Z,31.50
2023-02-12T11:46:55.773Z,31.88
2023-02-12T11:50:26.703Z,32.08
2023-02-12T11:53:40.543Z,32.83
2023-02-12T11:56:47.301Z,33.05
2023-02-12T11:59:54.553Z,31.20
2023-02-12T12:03:47.863Z,33.08
2023-02-12T12:07:03.851Z,31.88
2023-02-12T12:11:11.200Z,33.63
2023-02-12T12:14:24.899Z,29.23
2023-02-12T12:18:02.724Z,30.98
2023-02-12T12:21:30.989Z,27.90
2023-02-12T12:24:56.855Z,28.63
2023-02-12T12:28:29.256Z,28.25
2023-02-12T12:31:44.830Z,29.20
2023-02-12T12:34:50.344Z,31.65
2023-02-12T12:38:05.334Z,29.38
2023-02-12T12:41:34.707Z,30.77
2023-02-12T12:44:42.662Z,34.10
2023-02-12T12:48:12.289Z,33.20
2023-02-12T12:51:23.592Z,31.00
2023-02-12T12:54:45.392Z,33.03
2023-02-12T12:58:04.940Z,30.30
2023-02-12T13:01:37.770Z,32.45
2023-02-12T13:04:51.675Z,35.03
2023-02-12T13:08:07.135Z,33.22
2023-02-12T13:11:44.700Z,34.58
2023-02-12T13:15:13.401Z,36.55
2023-02-12T13:18:41.862Z,36.33
2023-02-12T13:22:17.554Z,35.53
2023-02-12T13:25:31.275Z,36.00
2023-02-12T13:28:55.360Z,34.70
2023-02-12T13:32:15.619Z,34.90
2023-02-12T13:35:26.539Z,34.33
2023-02-12T13:39:10.315Z,35.00
2023-02-12T13:42:51.297Z,35.10
2023-02-12T13:46:04.469Z,31.42
2023-02-12T13:49:34.141Z,26.17
2023-02-12T13:52:57.845Z,22.05
2023-02-12T13:56:09.424Z,21.55
2023-02-12T13:59:35.841Z,20.67
2023-02-12T14:02:43.980Z,20.65
2023-02-12T14:05:49.482Z,20.42
2023-02-12T14:09:10.324Z,19.80
2023-02-12T14:12:24.836Z,17.63
2023-02-12T14:15:36.577Z,18.85
2023-02-12T14:18:41.836Z,19.63
2023-02-12T14:21:47.110Z,19.27
2023-02-12T14:24:57.338Z,20.85
2023-02-12T14:28:43.823Z,21.20
2023-02-12T14:31:49.697Z,21.63
2023-02-12T14:34:55.222Z,19.73
2023-02-12T14:38:04.168Z,21.75
2023-02-12T14:41:38.791Z,22.88
2023-02-12T14:44:56.394Z,22.80
2023-02-12T14:48:03.287Z,21.67
2023-02-12T14:51:17.993Z,23.25
2023-02-12T14:54:57.852Z,22.70
2023-02-12T14:58:18.184Z,22.95
2023-02-12T15:01:34.173Z,21.90
2023-02-12T15:04:45.441Z,22.60
2023-02-12T15:07:59.005Z,21.80
2023-02-12T15:11:15.252Z,22.60
2023-02-12T15:14:46.261Z,20.63
2023-02-12T15:18:00.722Z,20.42
2023-02-12T15:21:25.138Z,21.75
2023-02-12T15:24:30.650Z,21.80
2023-02-12T15:27:36.169Z,21.27
2023-02-12T15:30:43.531Z,22.17
2023-02-12T15:33:52.467Z,23.38
2023-02-12T15:36:59.946Z,22.05
2023-02-12T15:40:09.801Z,21.17
2023-02-12T15:43:19.498Z,23.02
2023-02-12T15:46:25.279Z,21.50
2023-02-12T15:49:36.803Z,20.92
2023-02-12T15:52:46.021Z,19.92
2023-02-12T15:55:52.494Z,19.92
2023-02-12T15:59:01.195Z,20.20
2023-02-12T16:02:21.540Z,19.23
2023-02-12T16:05:27.595Z,19.90
2023-02-12T16:08:36.158Z,19.27
2023-02-12T16:11:44.608Z,17.75
2023-02-12T16:14:55.916Z,20.13
2023-02-12T16:18:04.531Z,21.92
2023-02-12T16:21:18.783Z,20.38
2023-02-12T16:24:34.060Z,20.55
2023-02-12T16:27:40.640Z,29.15
2023-02-12T16:30:48.648Z,22.38
2023-02-12T16:33:59.641Z,20.88
2023-02-12T16:37:45.559Z,21.98
2023-02-12T16:41:09.367Z,20.30
2023-02-12T16:44:17.202Z,20.15
2023-02-12T16:47:25.153Z,20.98
2023-02-12T16:50:32.743Z,19.02
2023-02-12T16:53:43.955Z,20.63
2023-02-12T16:56:49.992Z,22.23
2023-02-12T16:59:55.378Z,19.45
2023-02-12T17:03:00.982Z,21.17
2023-02-12T17:06:06.382Z,23.33
2023-02-12T17:09:12.174Z,20.98
2023-02-12T17:12:17.940Z,22.05
2023-02-12T17:15:38.455Z,22.42
2023-02-12T17:18:44.521Z,19.45
2023-02-12T17:21:51.394Z,22.25
2023-02-12T17:24:57.245Z,20.52
2023-02-12T17:28:02.870Z,21.52
2023-02-12T17:31:09.595Z,21.13
2023-02-12T17:34:16.705Z,23.15
2023-02-12T17:37:22.579Z,24.08
2023-02-12T17:40:27.779Z,22.40
2023-02-12T17:43:33.071Z,45.50
2023-02-12T17:46:39.331Z,25.20
2023-02-12T17:49:44.585Z,24.17
2023-02-12T17:52:50.159Z,21.58
2023-02-12T17:55:55.507Z,19.20
2023-02-12T17:59:01.355Z,19.65
2023-02-12T18:02:12.608Z,20.50
2023-02-12T18:06:39.648Z,21.27
2023-02-12T18:09:45.540Z,21.58
2023-02-12T18:12:51.220Z,21.90
2023-02-12T18:15:56.585Z,22.30
2023-02-12T18:19:04.889Z,21.00
2023-02-12T18:22:10.564Z,21.33
2023-02-12T18:25:18.098Z,20.50
2023-02-12T18:28:24.898Z,20.42
2023-02-12T18:31:30.528Z,20.08
2023-02-12T18:34:36.128Z,22.67
2023-02-12T18:37:43.337Z,20.35
2023-02-12T18:40:49.077Z,18.60
2023-02-12T18:43:56.466Z,19.80
2023-02-12T18:47:02.164Z,19.95
2023-02-12T18:50:08.609Z,22.38
2023-02-12T18:53:14.682Z,22.80
2023-02-12T18:56:20.411Z,23.98
2023-02-12T18:59:27.399Z,20.55
2023-02-12T19:02:33.013Z,20.63
2023-02-12T19:05:38.452Z,21.00
2023-02-12T19:08:43.871Z,19.63
2023-02-12T19:11:51.126Z,18.40
2023-02-12T19:14:56.556Z,18.75
2023-02-12T19:18:02.208Z,19.17
2023-02-12T19:21:12.981Z,18.40
2023-02-12T19:24:18.320Z,19.13
2023-02-12T19:27:23.819Z,18.08
2023-02-12T19:30:30.779Z,18.10
2023-02-12T19:33:37.329Z,18.90
2023-02-12T19:36:43.591Z,19.58
2023-02-12T19:39:49.232Z,19.63
2023-02-12T19:42:54.693Z,17.42
2023-02-12T19:46:09.911Z,21.52
2023-02-12T19:49:24.492Z,20.73
2023-02-12T19:52:29.431Z,19.58
2023-02-12T19:55:36.077Z,19.80
2023-02-12T19:58:41.622Z,20.00
2023-02-12T20:01:48.509Z,20.67
2023-02-12T20:04:54.005Z,20.55
2023-02-12T20:07:59.776Z,21.05
2023-02-12T20:11:11.589Z,20.45
2023-02-12T20:14:17.870Z,23.23
2023-02-12T20:17:23.425Z,23.55
2023-02-12T20:20:29.582Z,23.85
2023-02-12T20:23:35.775Z,21.52
2023-02-12T20:26:42.425Z,22.25
2023-02-12T20:29:48.320Z,21.95
2023-02-12T20:32:54.313Z,22.73
2023-02-12T20:35:59.824Z,21.50
2023-02-12T20:39:07.740Z,21.77
2023-02-12T20:42:14.247Z,21.17
2023-02-12T20:45:20.232Z,24.52
2023-02-12T20:48:26.182Z,24.50
2023-02-12T20:51:31.669Z,25.58
2023-02-12T20:54:38.390Z,24.33
2023-02-12T20:57:45.157Z,24.65
2023-02-12T21:00:51.768Z,22.92
2023-02-12T21:03:58.081Z,23.35
2023-02-12T21:07:04.816Z,23.08
2023-02-12T21:10:11.815Z,23.63
2023-02-12T21:13:17.472Z,25.42
2023-02-12T21:16:31.486Z,22.75
2023-02-12T21:19:37.935Z,23.48
2023-02-12T21:22:43.807Z,24.67
2023-02-12T21:25:49.310Z,24.60
2023-02-12T21:28:57.957Z,26.73
2023-02-12T21:32:03.981Z,24.63
2023-02-12T21:35:09.581Z,24.33
2023-02-12T21:38:14.995Z,24.27
2023-02-12T21:41:24.608Z,24.83
2023-02-12T21:44:33.128Z,23.85
2023-02-12T21:47:39.024Z,24.83
2023-02-12T21:50:44.347Z,24.27
2023-02-12T21:53:51.724Z,24.85
2023-02-12T21:56:57.165Z,25.58
2023-02-12T22:00:02.414Z,24.67
2023-02-12T22:03:19.738Z,25.33
2023-02-12T22:06:26.125Z,23.13
2023-02-12T22:09:32.176Z,24.23
2023-02-12T22:12:37.500Z,24.15
2023-02-12T22:15:42.580Z,24.23
2023-02-12T22:18:49.346Z,23.80
2023-02-12T22:21:54.834Z,23.40
2023-02-12T22:25:00.078Z,24.40
2023-02-12T22:28:05.873Z,24.67
2023-02-12T22:31:13.481Z,24.92
2023-02-12T22:34:19.226Z,25.30
2023-02-12T22:37:24.770Z,24.73
2023-02-12T22:40:30.075Z,24.75
2023-02-12T22:43:37.308Z,24.17
2023-02-12T22:46:43.402Z,25.33
2023-02-12T22:49:48.497Z,25.67
2023-02-12T22:52:54.144Z,24.10
2023-02-12T22:56:03.390Z,25.25
2023-02-12T22:59:11.660Z,23.67
2023-02-12T23:02:16.862Z,22.65
2023-02-12T23:05:22.105Z,21.55
2023-02-12T23:08:27.564Z,22.83
2023-02-12T23:11:33.748Z,21.92
2023-02-12T23:14:39.705Z,22.05
2023-02-12T23:17:44.878Z,23.80
2023-02-12T23:20:52.119Z,21.48
2023-02-12T23:23:59.339Z,20.73
2023-02-12T23:27:04.570Z,25.10
2023-02-12T23:30:10.308Z,23.55
2023-02-12T23:33:15.949Z,24.85
2023-02-12T23:36:21.632Z,23.92
2023-02-12T23:39:26.890Z,21.58
2023-02-12T23:42:32.227Z,21.02
2023-02-12T23:45:37.694Z,21.58
2023-02-12T23:48:44.874Z,22.25
2023-02-12T23:51:50.441Z,21.83
2023-02-12T23:54:57.005Z,20.30
2023-02-12T23:58:03.563Z,21.75
